KBDL

Bradley International Airport

Airport
ICAO code
KBDL
Summary
ICAO Region
NAM
ICAO Territory
Location

Windsor Locks, Connecticut,

Coordinates
41° 55' 43" N , 72° 41' 2" W
KCC
Metar
Observation
KBDL 270351Z 29007KT 10SM OVC055 02/M06 A2983 RMK AO2 SLP101 T00221056
Station
Windsor Locks, Bradley International Airport
Date/Time
2023-01-27 03:51:00
Wind direction
290°
Wind speed
07 kts
Lowest cloud amount
overcast
Temperature
2.2°C
Dew point
-5.6°C
Humidity
56%
Weather condition
n/a

Description

Bradley International Airport is a joint civil-military (ANG) public airport located in Windsor Locks on the border with East Granby and Suffield, in Hartford County, Connecticut.

Climatology

Humid “subtropical”/Continental climate (Köppen climate classification Cfa/Dfa) - characterized by hot, humid summers and cool/cold winters. Significant amounts of precipitation occur in all seasons in most areas. Winter rainfall (and snowfall) is associated with large storms that the westerlies steer from west to east. Most summer rainfall occurs during thunderstorms.

Airport map

Aerial View

SKYbrary Partners:

Safety knowledge contributed by: